createdAt,value
2017-11-27T00:00:27.985Z,4.24
2017-11-27T00:01:27.972Z,4.22
2017-11-27T00:02:28.219Z,4.21
2017-11-27T00:03:27.715Z,4.27
2017-11-27T00:04:28.200Z,4.2
2017-11-27T00:05:28.199Z,4.38
2017-11-27T00:06:28.182Z,4.21
2017-11-27T00:07:28.178Z,4.25
2017-11-27T00:08:28.163Z,4.25
2017-11-27T00:09:28.152Z,4.2
2017-11-27T00:10:27.623Z,4.18
2017-11-27T00:11:28.132Z,4.06
2017-11-27T00:12:28.129Z,4.06
2017-11-27T00:13:28.118Z,3.95
2017-11-27T00:14:28.118Z,4.03
2017-11-27T00:15:28.090Z,4
2017-11-27T00:16:27.824Z,4.06
2017-11-27T00:17:28.073Z,3.96
2017-11-27T00:18:28.061Z,3.95
2017-11-27T00:19:28.049Z,3.92
2017-11-27T00:20:28.143Z,3.95
2017-11-27T00:21:28.029Z,4.03
2017-11-27T00:22:27.505Z,3.78
2017-11-27T00:23:27.755Z,3.88
2017-11-27T00:24:28.005Z,3.85
2017-11-27T00:25:27.993Z,3.82
2017-11-27T00:26:27.985Z,3.85
2017-11-27T00:27:27.981Z,3.82
2017-11-27T00:28:27.957Z,3.78
2017-11-27T00:29:27.444Z,3.88
2017-11-27T00:30:27.781Z,3.89
2017-11-27T00:31:27.681Z,3.86
2017-11-27T00:32:27.405Z,3.84
2017-11-27T00:33:27.396Z,3.84
2017-11-27T00:34:27.752Z,3.89
2017-11-27T00:35:28.030Z,3.86
2017-11-27T00:36:27.632Z,3.86
2017-11-27T00:37:27.712Z,3.81
2017-11-27T00:38:27.343Z,3.73
2017-11-27T00:39:27.854Z,3.76
2017-11-27T00:40:27.845Z,3.82
2017-11-27T00:41:27.840Z,3.78
2017-11-27T00:42:27.307Z,3.78
2017-11-27T00:43:27.824Z,3.74
2017-11-27T00:44:27.836Z,3.77
2017-11-27T00:45:27.273Z,3.76
2017-11-27T00:46:27.793Z,3.73
2017-11-27T00:47:27.797Z,3.67
2017-11-27T00:48:27.604Z,3.67
2017-11-27T00:49:27.496Z,3.64
2017-11-27T00:50:27.760Z,3.59
2017-11-27T00:51:27.474Z,3.61
2017-11-27T00:52:27.464Z,3.61
2017-11-27T00:53:27.710Z,3.58
2017-11-27T00:54:27.708Z,3.59
2017-11-27T00:55:27.449Z,3.59
2017-11-27T00:56:27.689Z,3.61
2017-11-27T00:57:27.671Z,3.59
2017-11-27T00:58:27.672Z,3.61
2017-11-27T00:59:27.650Z,3.67
2017-11-27T01:00:27.643Z,3.66
2017-11-27T01:01:27.635Z,3.67
2017-11-27T01:02:27.624Z,3.61
2017-11-27T01:03:27.610Z,3.71
2017-11-27T01:04:27.601Z,3.71
2017-11-27T01:05:27.593Z,3.74
2017-11-27T01:06:27.582Z,3.63
2017-11-27T01:07:27.677Z,3.78
2017-11-27T01:08:27.559Z,3.73
2017-11-27T01:09:27.561Z,3.63
2017-11-27T01:10:27.282Z,3.81
2017-11-27T01:11:27.527Z,3.77
2017-11-27T01:12:27.525Z,3.77
2017-11-27T01:13:27.610Z,3.76
2017-11-27T01:14:27.522Z,3.7
2017-11-27T01:15:27.233Z,3.88
2017-11-27T01:16:27.485Z,3.81
2017-11-27T01:17:27.211Z,3.84
2017-11-27T01:18:27.471Z,3.81
2017-11-27T01:19:27.457Z,3.82
2017-11-27T01:20:27.490Z,3.82
2017-11-27T01:21:27.526Z,3.85
2017-11-27T01:22:27.430Z,3.86
2017-11-27T01:23:27.419Z,3.88
2017-11-27T01:24:27.401Z,3.85
2017-11-27T01:25:27.396Z,3.76
2017-11-27T01:26:27.486Z,3.82
2017-11-27T01:27:27.369Z,3.78
2017-11-27T01:28:27.369Z,3.81
2017-11-27T01:29:27.090Z,3.85
2017-11-27T01:30:27.340Z,3.78
2017-11-27T01:31:27.071Z,3.82
2017-11-27T01:32:27.317Z,3.77
2017-11-27T01:33:27.051Z,3.78
2017-11-27T01:34:27.037Z,3.77
2017-11-27T01:35:27.291Z,3.76
2017-11-27T01:36:27.280Z,3.73
2017-11-27T01:37:27.013Z,3.76
2017-11-27T01:38:27.129Z,3.78
2017-11-27T01:39:27.349Z,3.63
2017-11-27T01:40:26.993Z,3.7
2017-11-27T01:41:26.971Z,3.64
2017-11-27T01:42:27.225Z,3.76
2017-11-27T01:43:27.217Z,3.67
2017-11-27T01:44:27.201Z,3.64
2017-11-27T01:45:26.936Z,3.58
2017-11-27T01:46:27.188Z,3.52
2017-11-27T01:47:26.912Z,3.59
2017-11-27T01:48:26.905Z,3.56
2017-11-27T01:49:26.889Z,3.56
2017-11-27T01:50:27.238Z,3.59
2017-11-27T01:51:27.136Z,3.63
2017-11-27T01:52:27.119Z,3.46
2017-11-27T01:53:26.952Z,3.5
2017-11-27T01:54:26.839Z,3.45
2017-11-27T01:55:27.099Z,3.53
2017-11-27T01:56:26.829Z,3.41
2017-11-27T01:57:27.073Z,3.45
2017-11-27T01:58:26.800Z,3.49
2017-11-27T01:59:26.790Z,3.52
2017-11-27T02:00:27.038Z,3.49
2017-11-27T02:01:27.026Z,3.45
2017-11-27T02:02:26.604Z,3.33
2017-11-27T02:03:27.005Z,3.36
2017-11-27T02:04:27.134Z,3.37
2017-11-27T02:05:27.087Z,3.49
2017-11-27T02:06:26.741Z,3.53
2017-11-27T02:07:26.716Z,3.46
2017-11-27T02:08:26.702Z,3.48
2017-11-27T02:09:26.688Z,3.52
2017-11-27T02:10:26.678Z,3.49
2017-11-27T02:11:26.927Z,3.56
2017-11-27T02:12:26.663Z,3.52
2017-11-27T02:13:26.647Z,3.63
2017-11-27T02:14:26.896Z,3.7
2017-11-27T02:15:26.627Z,3.63
2017-11-27T02:16:26.886Z,3.64
2017-11-27T02:17:26.872Z,3.63
2017-11-27T02:18:26.859Z,3.66
2017-11-27T02:19:26.847Z,3.73
2017-11-27T02:20:26.580Z,3.74
2017-11-27T02:21:26.825Z,3.76
2017-11-27T02:22:26.559Z,3.77
2017-11-27T02:23:26.817Z,3.81
2017-11-27T02:24:26.804Z,3.81
2017-11-27T02:25:26.789Z,3.81
2017-11-27T02:26:26.780Z,3.91
2017-11-27T02:27:26.506Z,3.86
2017-11-27T02:28:26.605Z,3.92
2017-11-27T02:29:26.590Z,3.89
2017-11-27T02:30:26.741Z,3.92
2017-11-27T02:31:26.475Z,3.95
2017-11-27T02:32:26.732Z,3.91
2017-11-27T02:33:26.723Z,3.95
2017-11-27T02:34:26.734Z,3.92
2017-11-27T02:35:26.702Z,3.92
2017-11-27T02:36:26.682Z,3.94
2017-11-27T02:37:26.407Z,3.95
2017-11-27T02:38:26.755Z,3.94
2017-11-27T02:39:26.648Z,3.92
2017-11-27T02:40:26.752Z,3.95
2017-11-27T02:41:26.646Z,3.96
2017-11-27T02:42:26.359Z,4.02
2017-11-27T02:43:26.612Z,4
2017-11-27T02:44:26.349Z,3.99
2017-11-27T02:45:26.070Z,4
2017-11-27T02:46:26.061Z,3.95
2017-11-27T02:47:26.309Z,3.94
2017-11-27T02:48:26.307Z,3.86
2017-11-27T02:49:26.541Z,3.91
2017-11-27T02:50:26.541Z,3.86
2017-11-27T02:51:26.265Z,3.77
2017-11-27T02:52:26.517Z,3.84
2017-11-27T02:53:26.252Z,3.77
2017-11-27T02:54:26.242Z,3.86
2017-11-27T02:55:26.227Z,3.71
2017-11-27T02:56:26.478Z,3.85
2017-11-27T02:57:25.946Z,3.84
2017-11-27T02:58:26.194Z,3.86
2017-11-27T02:59:26.454Z,3.82
2017-11-27T03:00:26.173Z,3.78
2017-11-27T03:01:26.166Z,3.86
2017-11-27T03:02:25.898Z,3.84
2017-11-27T03:03:26.405Z,3.82
2017-11-27T03:04:26.233Z,3.88
2017-11-27T03:05:26.486Z,3.81
2017-11-27T03:06:26.382Z,3.89
2017-11-27T03:07:25.945Z,3.91
2017-11-27T03:08:26.095Z,3.96
2017-11-27T03:09:26.096Z,4
2017-11-27T03:10:26.347Z,4.06
2017-11-27T03:11:26.070Z,3.95
2017-11-27T03:12:26.053Z,3.94
2017-11-27T03:13:26.306Z,3.95
2017-11-27T03:14:26.035Z,3.99
2017-11-27T03:15:26.025Z,4.04
2017-11-27T03:16:26.017Z,4.09
2017-11-27T03:17:26.362Z,4.09
2017-11-27T03:18:26.254Z,4.09
2017-11-27T03:19:25.984Z,4.18
2017-11-27T03:20:25.975Z,4.12
2017-11-27T03:21:25.965Z,4.14
2017-11-27T03:22:25.956Z,4.2
2017-11-27T03:23:25.946Z,4.18
2017-11-27T03:24:26.204Z,4.22
2017-11-27T03:25:26.185Z,4.25
2017-11-27T03:26:25.930Z,4.14
2017-11-27T03:27:25.907Z,4.13
2017-11-27T03:28:25.897Z,4.1
2017-11-27T03:29:26.139Z,4.1
2017-11-27T03:30:26.145Z,4.12
2017-11-27T03:31:25.607Z,4.12
2017-11-27T03:32:26.211Z,4.06
2017-11-27T03:33:26.206Z,4.02
2017-11-27T03:34:26.097Z,4.12
2017-11-27T03:35:25.824Z,4.04
2017-11-27T03:36:25.812Z,4.22
2017-11-27T03:37:26.168Z,4.2
2017-11-27T03:38:26.050Z,4.21
2017-11-27T03:39:26.046Z,4.21
2017-11-27T03:40:26.129Z,4.24
2017-11-27T03:41:26.122Z,4.21
2017-11-27T03:42:25.754Z,4.28
2017-11-27T03:43:25.748Z,4.27
2017-11-27T03:44:25.741Z,4.27
2017-11-27T03:45:25.984Z,4.18
2017-11-27T03:46:25.970Z,4.16
2017-11-27T03:47:25.962Z,4.14
2017-11-27T03:48:25.435Z,4.13
2017-11-27T03:49:25.951Z,4.03
2017-11-27T03:50:25.933Z,4.12
2017-11-27T03:51:25.665Z,4.21
2017-11-27T03:52:25.916Z,4.2
2017-11-27T03:53:26.004Z,4.12
2017-11-27T03:54:25.639Z,4.1
2017-11-27T03:55:25.881Z,4.12
2017-11-27T03:56:25.889Z,4.12
2017-11-27T03:57:25.601Z,4.09
2017-11-27T03:58:25.597Z,4.14
2017-11-27T03:59:25.581Z,4.03
2017-11-27T04:00:25.580Z,4.21
2017-11-27T04:01:25.860Z,4.21
2017-11-27T04:02:25.293Z,4.27
2017-11-27T04:03:25.799Z,4.27
2017-11-27T04:04:25.792Z,4.18
2017-11-27T04:05:25.792Z,4.22
2017-11-27T04:06:25.515Z,4.22
2017-11-27T04:07:25.774Z,4.39
2017-11-27T04:08:25.492Z,4.27
2017-11-27T04:09:25.581Z,4.3
2017-11-27T04:10:25.475Z,4.42
2017-11-27T04:11:25.720Z,4.45
2017-11-27T04:12:25.712Z,4.42
2017-11-27T04:13:25.440Z,4.36
2017-11-27T04:14:25.724Z,4.39
2017-11-27T04:15:25.684Z,4.34
2017-11-27T04:16:25.679Z,4.38
2017-11-27T04:17:25.757Z,4.49
2017-11-27T04:18:25.393Z,4.52
2017-11-27T04:19:25.654Z,4.49
2017-11-27T04:20:25.730Z,4.43
2017-11-27T04:21:25.362Z,4.3
2017-11-27T04:22:25.812Z,4.31
2017-11-27T04:23:25.601Z,4.24
2017-11-27T04:24:25.589Z,4.27
2017-11-27T04:25:25.353Z,4.2
2017-11-27T04:26:25.311Z,4.21
2017-11-27T04:27:25.304Z,4.18
2017-11-27T04:28:25.663Z,4.12
2017-11-27T04:29:25.551Z,4.04
2017-11-27T04:30:25.534Z,4.04
2017-11-27T04:31:25.104Z,4.07
2017-11-27T04:32:25.517Z,4.22
2017-11-27T04:33:25.248Z,4.13
2017-11-27T04:34:25.232Z,4.18
2017-11-27T04:35:25.481Z,4.1
2017-11-27T04:36:25.209Z,4.13
2017-11-27T04:37:25.473Z,4.1
2017-11-27T04:38:25.475Z,3.99
2017-11-27T04:39:25.183Z,4.06
2017-11-27T04:40:25.177Z,4.02
2017-11-27T04:41:25.161Z,4.06
2017-11-27T04:42:25.406Z,3.99
2017-11-27T04:43:25.403Z,3.95
2017-11-27T04:44:25.132Z,3.96
2017-11-27T04:45:25.379Z,4
2017-11-27T04:46:25.111Z,3.94
2017-11-27T04:47:25.357Z,3.96
2017-11-27T04:48:25.349Z,3.85
2017-11-27T04:49:25.345Z,3.86
2017-11-27T04:50:25.332Z,3.81
2017-11-27T04:51:25.322Z,3.84
2017-11-27T04:52:25.317Z,3.78
2017-11-27T04:53:25.405Z,3.78
2017-11-27T04:54:25.289Z,3.81
2017-11-27T04:55:24.765Z,3.73
2017-11-27T04:56:25.273Z,3.86
2017-11-27T04:57:25.011Z,3.91
2017-11-27T04:58:24.991Z,3.91
2017-11-27T04:59:25.242Z,3.88
2017-11-27T05:00:25.241Z,3.91
2017-11-27T05:01:25.221Z,3.89
2017-11-27T05:02:25.208Z,3.78
2017-11-27T05:03:25.202Z,3.88
2017-11-27T05:04:25.287Z,3.86
2017-11-27T05:05:24.925Z,3.82
2017-11-27T05:06:25.170Z,3.86
2017-11-27T05:07:25.265Z,3.91
2017-11-27T05:08:24.889Z,3.81
2017-11-27T05:09:24.881Z,3.82
2017-11-27T05:10:24.872Z,3.92
2017-11-27T05:11:25.117Z,3.92
2017-11-27T05:12:24.853Z,3.96
2017-11-27T05:13:24.841Z,3.96
2017-11-27T05:14:24.833Z,3.95
2017-11-27T05:15:25.098Z,4.02
2017-11-27T05:16:25.072Z,3.95
2017-11-27T05:17:24.545Z,4.03
2017-11-27T05:18:24.791Z,4
2017-11-27T05:19:25.047Z,3.94
2017-11-27T05:20:24.612Z,4.06
2017-11-27T05:21:25.020Z,3.95
2017-11-27T05:22:25.111Z,3.94
2017-11-27T05:23:24.766Z,3.94
2017-11-27T05:24:24.988Z,3.92
2017-11-27T05:25:24.560Z,4
2017-11-27T05:26:24.809Z,3.95
2017-11-27T05:27:24.701Z,4.03
2017-11-27T05:28:24.688Z,3.95
2017-11-27T05:29:24.782Z,4.02
2017-11-27T05:30:24.673Z,3.95
2017-11-27T05:31:24.922Z,3.92
2017-11-27T05:32:24.909Z,3.96
2017-11-27T05:33:24.636Z,3.77
2017-11-27T05:34:24.892Z,3.86
2017-11-27T05:35:24.975Z,3.77
2017-11-27T05:36:24.709Z,3.73
2017-11-27T05:37:24.598Z,3.77
2017-11-27T05:38:24.855Z,3.77
2017-11-27T05:39:24.578Z,3.77
2017-11-27T05:40:24.825Z,3.71
2017-11-27T05:41:24.916Z,3.77
2017-11-27T05:42:24.915Z,3.76
2017-11-27T05:43:24.805Z,3.76
2017-11-27T05:44:24.532Z,3.82
2017-11-27T05:45:24.780Z,3.81
2017-11-27T05:46:24.765Z,3.76
2017-11-27T05:47:24.761Z,3.78
2017-11-27T05:48:24.748Z,3.76
2017-11-27T05:49:24.745Z,3.78
2017-11-27T05:50:24.471Z,3.78
2017-11-27T05:51:24.458Z,3.7
2017-11-27T05:52:24.711Z,3.73
2017-11-27T05:53:24.436Z,3.76
2017-11-27T05:54:24.442Z,3.86
2017-11-27T05:55:24.670Z,3.78
2017-11-27T05:56:24.692Z,3.92
2017-11-27T05:57:24.493Z,3.85
2017-11-27T05:58:24.642Z,3.88
2017-11-27T05:59:24.632Z,3.89
2017-11-27T06:00:24.638Z,3.88
2017-11-27T06:01:24.355Z,3.92
2017-11-27T06:02:24.595Z,3.96
2017-11-27T06:03:24.325Z,3.96
2017-11-27T06:04:24.569Z,4.03
2017-11-27T06:05:24.308Z,3.95
2017-11-27T06:06:24.396Z,4.03
2017-11-27T06:07:24.554Z,4.07
2017-11-27T06:08:24.533Z,4.06
2017-11-27T06:09:24.525Z,4.04
2017-11-27T06:10:23.995Z,4.07
2017-11-27T06:11:24.510Z,4.06
2017-11-27T06:12:24.491Z,4.06
2017-11-27T06:13:24.592Z,4.06
2017-11-27T06:14:24.476Z,4.04
2017-11-27T06:15:24.465Z,4
2017-11-27T06:16:24.454Z,4.06
2017-11-27T06:17:24.442Z,4
2017-11-27T06:18:24.432Z,3.99
2017-11-27T06:19:24.166Z,3.99
2017-11-27T06:20:24.447Z,3.94
2017-11-27T06:21:24.497Z,4.03
2017-11-27T06:22:24.491Z,4.04
2017-11-27T06:23:24.384Z,3.88
2017-11-27T06:24:24.380Z,3.96
2017-11-27T06:25:24.373Z,3.91
2017-11-27T06:26:24.092Z,3.94
2017-11-27T06:27:24.085Z,3.92
2017-11-27T06:28:24.429Z,3.91
2017-11-27T06:29:23.912Z,3.94
2017-11-27T06:30:24.058Z,4
2017-11-27T06:31:24.307Z,4.09
2017-11-27T06:32:24.390Z,4.1
2017-11-27T06:33:24.284Z,4.09
2017-11-27T06:34:24.284Z,4.18
2017-11-27T06:35:24.274Z,4.22
2017-11-27T06:36:23.989Z,4.12
2017-11-27T06:37:24.085Z,4.18
2017-11-27T06:38:24.233Z,4.12
2017-11-27T06:39:23.969Z,4.24
2017-11-27T06:40:23.796Z,4.14
2017-11-27T06:41:24.207Z,4.04
2017-11-27T06:42:24.292Z,4.2
2017-11-27T06:43:24.213Z,4.14
2017-11-27T06:44:24.177Z,4.14
2017-11-27T06:45:23.644Z,4.21
2017-11-27T06:46:24.155Z,4.13
2017-11-27T06:47:24.240Z,4.07
2017-11-27T06:48:24.130Z,4.04
2017-11-27T06:49:24.121Z,4.07
2017-11-27T06:50:23.853Z,4.04
2017-11-27T06:51:24.109Z,3.95
2017-11-27T06:52:23.931Z,3.88
2017-11-27T06:53:24.084Z,3.86
2017-11-27T06:54:24.066Z,3.84
2017-11-27T06:55:24.069Z,3.89
2017-11-27T06:56:24.057Z,3.82
2017-11-27T06:57:24.039Z,3.88
2017-11-27T06:58:23.513Z,3.85
2017-11-27T06:59:24.023Z,3.88
2017-11-27T07:00:23.753Z,3.91
2017-11-27T07:01:23.997Z,3.94
2017-11-27T07:02:23.471Z,3.96
2017-11-27T07:03:23.979Z,3.99
2017-11-27T07:04:23.972Z,3.95
2017-11-27T07:05:23.960Z,3.92
2017-11-27T07:06:23.944Z,3.95
2017-11-27T07:07:23.941Z,4.03
2017-11-27T07:08:23.672Z,3.94
2017-11-27T07:09:23.918Z,3.91
2017-11-27T07:10:24.013Z,3.92
2017-11-27T07:11:23.898Z,3.86
2017-11-27T07:12:23.632Z,3.86
2017-11-27T07:13:23.630Z,3.77
2017-11-27T07:14:23.899Z,3.84
2017-11-27T07:15:23.975Z,3.85
2017-11-27T07:16:23.599Z,3.85
2017-11-27T07:17:23.852Z,3.86
2017-11-27T07:18:23.424Z,3.85
2017-11-27T07:19:23.569Z,3.81
2017-11-27T07:20:23.831Z,3.86
2017-11-27T07:21:23.549Z,3.81
2017-11-27T07:22:23.539Z,3.81
2017-11-27T07:23:23.541Z,3.71
2017-11-27T07:24:23.517Z,3.82
2017-11-27T07:25:23.509Z,3.76
2017-11-27T07:26:23.603Z,3.84
2017-11-27T07:27:23.487Z,3.82
2017-11-27T07:28:23.760Z,3.88
2017-11-27T07:29:23.474Z,3.92
2017-11-27T07:30:23.738Z,3.84
2017-11-27T07:31:23.704Z,3.84
2017-11-27T07:32:23.705Z,3.85
2017-11-27T07:33:23.424Z,3.74
2017-11-27T07:34:23.674Z,3.85
2017-11-27T07:35:23.662Z,3.89
2017-11-27T07:36:23.688Z,3.95
2017-11-27T07:37:23.643Z,3.86
2017-11-27T07:38:23.372Z,3.86
2017-11-27T07:39:23.360Z,3.91
2017-11-27T07:40:23.712Z,3.91
2017-11-27T07:41:23.354Z,4
2017-11-27T07:42:23.593Z,3.91
2017-11-27T07:43:23.592Z,3.92
2017-11-27T07:44:23.571Z,3.95
2017-11-27T07:45:23.564Z,3.95
2017-11-27T07:46:23.290Z,3.96
2017-11-27T07:47:23.546Z,4
2017-11-27T07:48:23.275Z,3.99
2017-11-27T07:49:23.267Z,3.96
2017-11-27T07:50:22.997Z,3.95
2017-11-27T07:51:23.509Z,4
2017-11-27T07:52:23.518Z,3.95
2017-11-27T07:53:23.479Z,4.06
2017-11-27T07:54:23.471Z,4.04
2017-11-27T07:55:23.479Z,4.06
2017-11-27T07:56:22.930Z,3.99
2017-11-27T07:57:23.544Z,4.02
2017-11-27T07:58:23.279Z,4.06
2017-11-27T07:59:23.158Z,4.12
2017-11-27T08:00:23.420Z,4.07
2017-11-27T08:01:23.514Z,4.13
2017-11-27T08:02:23.126Z,4.16
2017-11-27T08:03:23.153Z,4.07
2017-11-27T08:04:23.373Z,4.04
2017-11-27T08:05:23.096Z,4.18
2017-11-27T08:06:23.086Z,4.18
2017-11-27T08:07:22.815Z,4.18
2017-11-27T08:08:23.068Z,4.14
2017-11-27T08:09:23.100Z,4.21
2017-11-27T08:10:23.305Z,4.16
2017-11-27T08:11:23.301Z,4.21
2017-11-27T08:12:23.296Z,4.22
2017-11-27T08:13:23.278Z,4.18
2017-11-27T08:14:23.276Z,4.27
2017-11-27T08:15:23.003Z,4.16
2017-11-27T08:16:23.242Z,4.14
2017-11-27T08:17:23.074Z,4.3
2017-11-27T08:18:22.965Z,4.22
2017-11-27T08:19:23.221Z,4.21
2017-11-27T08:20:22.684Z,4.22
2017-11-27T08:21:23.200Z,4.28
2017-11-27T08:22:23.283Z,4.28
2017-11-27T08:23:23.171Z,4.2
2017-11-27T08:24:23.002Z,4.25
2017-11-27T08:25:23.146Z,4.18
2017-11-27T08:26:23.146Z,4.27
2017-11-27T08:27:23.129Z,4.21
2017-11-27T08:28:23.118Z,4.06
2017-11-27T08:29:22.846Z,4.14
2017-11-27T08:30:22.845Z,4.09
2017-11-27T08:31:22.834Z,4.07
2017-11-27T08:32:23.084Z,4.09
2017-11-27T08:33:23.069Z,4.07
2017-11-27T08:34:23.055Z,4.12
2017-11-27T08:35:23.046Z,4.06
2017-11-27T08:36:23.039Z,4.13
2017-11-27T08:37:23.027Z,4.02
2017-11-27T08:38:22.755Z,4.13
2017-11-27T08:39:22.859Z,4.21
2017-11-27T08:40:23.097Z,4.18
2017-11-27T08:41:22.983Z,4.18
2017-11-27T08:42:22.713Z,4.32
2017-11-27T08:43:22.806Z,4.27
2017-11-27T08:44:22.962Z,4.25
2017-11-27T08:45:22.688Z,4.24
2017-11-27T08:46:22.943Z,4.34
2017-11-27T08:47:22.664Z,4.34
2017-11-27T08:48:22.918Z,4.36
2017-11-27T08:49:22.899Z,4.36
2017-11-27T08:50:22.888Z,4.36
2017-11-27T08:51:22.878Z,4.34
2017-11-27T08:52:22.876Z,4.36
2017-11-27T08:53:22.707Z,4.34
2017-11-27T08:54:22.889Z,4.39
2017-11-27T08:55:22.579Z,4.45
2017-11-27T08:56:22.834Z,4.36
2017-11-27T08:57:22.823Z,4.34
2017-11-27T08:58:22.659Z,4.42
2017-11-27T08:59:22.817Z,4.39
2017-11-27T09:00:22.792Z,4.49
2017-11-27T09:01:22.873Z,4.52
2017-11-27T09:02:22.776Z,4.48
2017-11-27T09:03:22.497Z,4.43
2017-11-27T09:04:22.746Z,4.5
2017-11-27T09:05:22.837Z,4.53
2017-11-27T09:06:22.478Z,4.52
2017-11-27T09:07:22.714Z,4.46
2017-11-27T09:08:22.448Z,4.46
2017-11-27T09:09:22.697Z,4.48
2017-11-27T09:10:22.689Z,4.49
2017-11-27T09:11:22.676Z,4.5
2017-11-27T09:12:22.680Z,4.53
2017-11-27T09:13:22.396Z,4.46
2017-11-27T09:14:22.387Z,4.49
2017-11-27T09:15:22.633Z,4.53
2017-11-27T09:16:22.621Z,4.5
2017-11-27T09:17:22.611Z,4.48
2017-11-27T09:18:22.623Z,4.49
2017-11-27T09:19:22.077Z,4.43
2017-11-27T09:20:22.320Z,4.49
2017-11-27T09:21:22.333Z,4.46
2017-11-27T09:22:22.305Z,4.53
2017-11-27T09:23:22.657Z,4.57
2017-11-27T09:24:22.537Z,4.57
2017-11-27T09:25:22.532Z,4.58
2017-11-27T09:26:22.531Z,4.6
2017-11-27T09:27:22.527Z,4.48
2017-11-27T09:28:22.626Z,4.56
2017-11-27T09:29:21.969Z,4.57
2017-11-27T09:30:22.219Z,4.61
2017-11-27T09:31:22.472Z,4.57
2017-11-27T09:32:22.450Z,4.57
2017-11-27T09:33:22.448Z,4.49
2017-11-27T09:34:22.444Z,4.6
2017-11-27T09:35:22.167Z,4.53
2017-11-27T09:36:22.421Z,4.56
2017-11-27T09:37:22.412Z,4.57
2017-11-27T09:38:22.131Z,4.56
2017-11-27T09:39:22.390Z,4.61
2017-11-27T09:40:22.381Z,4.66
2017-11-27T09:41:22.110Z,4.66
2017-11-27T09:42:22.095Z,4.64
2017-11-27T09:43:22.356Z,4.66
2017-11-27T09:44:22.081Z,4.75
2017-11-27T09:45:22.325Z,4.71
2017-11-27T09:46:22.318Z,4.7
2017-11-27T09:47:22.418Z,4.7
2017-11-27T09:48:22.029Z,4.75
2017-11-27T09:49:22.023Z,4.71
2017-11-27T09:50:22.376Z,4.71
2017-11-27T09:51:21.998Z,4.68
2017-11-27T09:52:21.733Z,4.68
2017-11-27T09:53:21.980Z,4.67
2017-11-27T09:54:22.226Z,4.74
2017-11-27T09:55:22.222Z,4.63
2017-11-27T09:56:22.208Z,4.67
2017-11-27T09:57:22.212Z,4.82
2017-11-27T09:58:21.768Z,4.79
2017-11-27T09:59:22.182Z,4.92
2017-11-27T10:00:22.171Z,4.98
2017-11-27T10:01:22.152Z,4.89
2017-11-27T10:02:21.628Z,4.86
2017-11-27T10:03:22.234Z,4.98
2017-11-27T10:04:21.870Z,4.87
2017-11-27T10:05:22.116Z,4.94
2017-11-27T10:06:21.845Z,4.94
2017-11-27T10:07:22.101Z,4.97
2017-11-27T10:08:22.183Z,4.9
2017-11-27T10:09:21.828Z,4.89
2017-11-27T10:10:21.806Z,4.94
2017-11-27T10:11:22.052Z,4.98
2017-11-27T10:12:22.042Z,4.94
2017-11-27T10:13:21.777Z,4.9
2017-11-27T10:14:21.763Z,4.84
2017-11-27T10:15:21.752Z,4.79
2017-11-27T10:16:21.743Z,4.78
2017-11-27T10:17:21.734Z,4.78
2017-11-27T10:18:21.719Z,4.75
2017-11-27T10:19:21.999Z,4.74
2017-11-27T10:20:21.800Z,4.74
2017-11-27T10:21:21.699Z,4.75
2017-11-27T10:22:21.947Z,4.78
2017-11-27T10:23:21.936Z,4.79
2017-11-27T10:24:21.920Z,4.71
2017-11-27T10:25:21.911Z,4.7
2017-11-27T10:26:21.897Z,4.83
2017-11-27T10:27:21.634Z,4.7
2017-11-27T10:28:21.878Z,4.71
2017-11-27T10:29:21.864Z,4.76
2017-11-27T10:30:21.855Z,4.68
2017-11-27T10:31:21.944Z,4.7
2017-11-27T10:32:21.833Z,4.75
2017-11-27T10:33:21.829Z,4.79
2017-11-27T10:34:21.816Z,4.92
2017-11-27T10:35:21.805Z,4.94
2017-11-27T10:36:21.894Z,4.97
2017-11-27T10:37:21.525Z,5.05
2017-11-27T10:38:21.530Z,5.15
2017-11-27T10:39:21.515Z,5.2
2017-11-27T10:40:21.510Z,5.23
2017-11-27T10:41:21.481Z,5.29
2017-11-27T10:42:21.738Z,5.41
2017-11-27T10:43:21.474Z,5.4
2017-11-27T10:44:21.450Z,5.4
2017-11-27T10:45:21.282Z,5.54
2017-11-27T10:46:21.696Z,5.56
2017-11-27T10:47:21.684Z,5.49
2017-11-27T10:48:21.669Z,5.67
2017-11-27T10:49:21.397Z,5.61
2017-11-27T10:50:21.651Z,5.73
2017-11-27T10:51:21.632Z,5.76
2017-11-27T10:52:21.626Z,5.83
2017-11-27T10:53:21.363Z,5.87
2017-11-27T10:54:21.350Z,5.88
2017-11-27T10:55:21.597Z,5.74
2017-11-27T10:56:21.605Z,5.79
2017-11-27T10:57:21.677Z,5.73
2017-11-27T10:58:21.310Z,5.67
2017-11-27T10:59:21.563Z,5.62
2017-11-27T11:00:21.545Z,5.54
2017-11-27T11:01:21.532Z,5.38
2017-11-27T11:02:21.259Z,5.34
2017-11-27T11:03:21.256Z,5.33
2017-11-27T11:04:21.245Z,5.28
2017-11-27T11:05:21.491Z,5.29
2017-11-27T11:06:21.479Z,5.29
2017-11-27T11:07:21.469Z,5.28
2017-11-27T11:08:21.460Z,5.22
2017-11-27T11:09:21.457Z,5.25
2017-11-27T11:10:21.182Z,5.31
2017-11-27T11:11:21.169Z,5.28
2017-11-27T11:12:21.170Z,5.34
2017-11-27T11:13:21.407Z,5.28
2017-11-27T11:14:21.138Z,5.33
2017-11-27T11:15:21.395Z,5.33
2017-11-27T11:16:21.381Z,5.36
2017-11-27T11:17:21.365Z,5.4
2017-11-27T11:18:21.477Z,5.46
2017-11-27T11:19:21.090Z,5.56
2017-11-27T11:20:21.351Z,5.43
2017-11-27T11:21:21.166Z,5.52
2017-11-27T11:22:21.173Z,5.52
2017-11-27T11:23:21.043Z,5.46
2017-11-27T11:24:21.303Z,5.51
2017-11-27T11:25:21.283Z,5.44
2017-11-27T11:26:21.022Z,5.51
2017-11-27T11:27:21.265Z,5.52
2017-11-27T11:28:21.259Z,5.51
2017-11-27T11:29:21.343Z,5.59
2017-11-27T11:30:20.968Z,5.52
2017-11-27T11:31:21.223Z,5.54
2017-11-27T11:32:21.211Z,5.49
2017-11-27T11:33:21.197Z,5.52
2017-11-27T11:34:21.189Z,5.54
2017-11-27T11:35:20.928Z,5.44
2017-11-27T11:36:20.908Z,5.37
2017-11-27T11:37:20.901Z,5.37
2017-11-27T11:38:20.892Z,5.46
2017-11-27T11:39:20.616Z,5.37
2017-11-27T11:40:23.275Z,5.52
2017-11-27T11:41:21.115Z,5.41
2017-11-27T11:42:20.849Z,5.36
2017-11-27T11:43:20.838Z,5.43
2017-11-27T11:44:21.086Z,5.52
2017-11-27T11:45:21.068Z,5.51
2017-11-27T11:46:20.541Z,5.49
2017-11-27T11:47:21.059Z,5.56
2017-11-27T11:48:21.047Z,5.55
2017-11-27T11:49:21.138Z,5.65
2017-11-27T11:50:21.033Z,5.64
2017-11-27T11:51:20.492Z,5.62
2017-11-27T11:52:21.010Z,5.69
2017-11-27T11:53:20.991Z,5.61
2017-11-27T11:54:20.994Z,5.64
2017-11-27T11:55:21.066Z,5.74
2017-11-27T11:56:20.801Z,5.76
2017-11-27T11:57:20.948Z,5.76
2017-11-27T11:58:20.956Z,5.79
2017-11-27T11:59:20.673Z,5.76
2017-11-27T12:00:20.920Z,5.88
2017-11-27T12:01:21.089Z,5.87
2017-11-27T12:02:20.941Z,5.94
2017-11-27T12:03:20.897Z,5.88
2017-11-27T12:04:20.880Z,5.91
2017-11-27T12:05:20.608Z,5.98
2017-11-27T12:06:20.336Z,5.99
2017-11-27T12:07:20.842Z,5.92
2017-11-27T12:08:20.574Z,5.94
2017-11-27T12:09:20.923Z,5.98
2017-11-27T12:10:20.826Z,6.01
2017-11-27T12:11:20.911Z,6.02
2017-11-27T12:12:20.532Z,5.94
2017-11-27T12:13:20.807Z,5.98
2017-11-27T12:14:20.511Z,5.92
2017-11-27T12:15:20.865Z,5.95
2017-11-27T12:16:20.750Z,5.95
2017-11-27T12:17:20.483Z,6.01
2017-11-27T12:18:20.471Z,5.97
2017-11-27T12:19:20.870Z,6.05
2017-11-27T12:20:20.716Z,6.06
2017-11-27T12:21:20.710Z,6.07
2017-11-27T12:22:20.428Z,6.05
2017-11-27T12:23:20.418Z,6.09
2017-11-27T12:24:20.666Z,6.05
2017-11-27T12:25:20.655Z,6.06
2017-11-27T12:26:20.648Z,6.16
2017-11-27T12:27:20.379Z,6.06
2017-11-27T12:28:20.633Z,6.06
2017-11-27T12:29:20.616Z,6.13
2017-11-27T12:30:20.447Z,6.19
2017-11-27T12:31:20.337Z,6.19
2017-11-27T12:32:20.328Z,6.19
2017-11-27T12:33:20.585Z,6.26
2017-11-27T12:34:20.661Z,6.26
2017-11-27T12:35:20.561Z,6.22
2017-11-27T12:36:20.650Z,6.26
2017-11-27T12:37:20.537Z,6.16
2017-11-27T12:38:20.264Z,6.1
2017-11-27T12:39:20.612Z,6.17
2017-11-27T12:40:20.252Z,6.19
2017-11-27T12:41:20.494Z,6.19
2017-11-27T12:42:20.478Z,6.16
2017-11-27T12:43:20.476Z,6.16
2017-11-27T12:44:20.470Z,6.26
2017-11-27T12:45:20.454Z,6.2
2017-11-27T12:46:20.655Z,6.22
2017-11-27T12:47:20.175Z,6.26
2017-11-27T12:48:20.420Z,6.17
2017-11-27T12:49:20.418Z,6.25
2017-11-27T12:50:20.509Z,6.29
2017-11-27T12:51:20.135Z,6.29
2017-11-27T12:52:20.377Z,6.26
2017-11-27T12:53:20.482Z,6.32
2017-11-27T12:54:20.360Z,6.31
2017-11-27T12:55:20.358Z,6.28
2017-11-27T12:56:20.334Z,6.29
2017-11-27T12:57:20.339Z,6.29
2017-11-27T12:58:20.316Z,6.32
2017-11-27T12:59:20.306Z,6.28
2017-11-27T13:00:20.396Z,6.28
2017-11-27T13:01:20.293Z,6.25
2017-11-27T13:02:20.012Z,6.17
2017-11-27T13:03:20.111Z,6.17
2017-11-27T13:04:20.258Z,6.19
2017-11-27T13:05:19.994Z,6.26
2017-11-27T13:06:19.978Z,6.34
2017-11-27T13:07:20.231Z,6.31
2017-11-27T13:08:20.321Z,6.41
2017-11-27T13:09:20.043Z,6.46
2017-11-27T13:10:19.674Z,6.5
2017-11-27T13:11:20.179Z,6.52
2017-11-27T13:12:20.179Z,6.57
2017-11-27T13:13:19.999Z,6.59
2017-11-27T13:14:19.990Z,6.6
2017-11-27T13:15:19.879Z,6.53
2017-11-27T13:16:20.129Z,6.62
2017-11-27T13:17:19.857Z,6.62
2017-11-27T13:18:19.851Z,6.56
2017-11-27T13:19:20.103Z,6.64
2017-11-27T13:20:19.568Z,6.62
2017-11-27T13:21:20.080Z,6.65